createdAt,value
2019-02-19T00:00:36.106Z,26.80
2019-02-19T00:03:03.573Z,27.10
2019-02-19T00:05:30.133Z,26.20
2019-02-19T00:07:56.784Z,25.20
2019-02-19T00:10:23.405Z,27.17
2019-02-19T00:12:51.059Z,25.97
2019-02-19T00:15:17.684Z,24.53
2019-02-19T00:17:44.419Z,29.30
2019-02-19T00:20:11.059Z,24.13
2019-02-19T00:22:37.805Z,26.43
2019-02-19T00:25:06.025Z,26.87
2019-02-19T00:27:32.668Z,27.20
2019-02-19T00:29:59.285Z,25.40
2019-02-19T00:32:25.938Z,24.63
2019-02-19T00:34:52.460Z,26.13
2019-02-19T00:37:19.018Z,25.30
2019-02-19T00:39:45.649Z,24.20
2019-02-19T00:42:12.305Z,24.30
2019-02-19T00:44:38.931Z,24.33
2019-02-19T00:47:05.480Z,24.00
2019-02-19T00:49:32.018Z,23.00
2019-02-19T00:51:58.584Z,28.67
2019-02-19T00:54:25.321Z,24.70
2019-02-19T00:56:51.861Z,25.70
2019-02-19T00:59:18.490Z,26.47
2019-02-19T01:01:45.117Z,23.37
2019-02-19T01:04:12.005Z,23.33
2019-02-19T01:06:38.628Z,25.20
2019-02-19T01:09:06.984Z,25.40
2019-02-19T01:11:33.617Z,24.80
2019-02-19T01:14:00.169Z,24.20
2019-02-19T01:16:26.897Z,26.03
2019-02-19T01:18:53.550Z,25.10
2019-02-19T01:21:20.077Z,24.10
2019-02-19T01:23:46.787Z,24.80
2019-02-19T01:26:13.408Z,24.30
2019-02-19T01:28:40.064Z,24.80
2019-02-19T01:31:07.199Z,25.50
2019-02-19T01:33:33.852Z,24.77
2019-02-19T01:36:01.377Z,24.47
2019-02-19T01:38:28.039Z,23.37
2019-02-19T01:40:54.663Z,24.73
2019-02-19T01:43:21.413Z,25.50
2019-02-19T01:45:48.028Z,23.77
2019-02-19T01:48:14.673Z,23.10
2019-02-19T01:50:41.293Z,25.33
2019-02-19T01:53:07.849Z,25.73
2019-02-19T01:55:34.301Z,26.63
2019-02-19T01:58:00.953Z,23.97
2019-02-19T02:00:27.489Z,24.00
2019-02-19T02:02:54.049Z,23.00
2019-02-19T02:05:20.581Z,25.73
2019-02-19T02:07:47.125Z,24.27
2019-02-19T02:10:13.649Z,23.50
2019-02-19T02:12:40.207Z,25.40
2019-02-19T02:15:07.046Z,24.47
2019-02-19T02:17:33.566Z,23.57
2019-02-19T02:20:00.354Z,22.67
2019-02-19T02:22:26.934Z,23.67
2019-02-19T02:24:53.484Z,22.77
2019-02-19T02:27:20.024Z,23.40
2019-02-19T02:29:46.682Z,23.50
2019-02-19T02:32:13.211Z,23.70
2019-02-19T02:34:39.889Z,24.80
2019-02-19T02:37:06.769Z,24.40
2019-02-19T02:39:33.417Z,22.57
2019-02-19T02:42:00.032Z,22.80
2019-02-19T02:44:26.786Z,23.47
2019-02-19T02:46:53.407Z,23.83
2019-02-19T02:49:20.073Z,22.60
2019-02-19T02:51:46.701Z,22.20
2019-02-19T02:54:13.278Z,24.37
2019-02-19T02:56:39.805Z,23.40
2019-02-19T02:59:06.343Z,23.50
2019-02-19T03:01:32.872Z,21.53
2019-02-19T03:03:59.531Z,21.83
2019-02-19T03:06:28.053Z,22.10
2019-02-19T03:08:54.703Z,22.60
2019-02-19T03:11:21.327Z,21.13
2019-02-19T03:13:47.999Z,23.00
2019-02-19T03:16:14.720Z,20.43
2019-02-19T03:18:41.260Z,22.00
2019-02-19T03:21:07.892Z,22.03
2019-02-19T03:23:34.516Z,22.30
2019-02-19T03:26:01.164Z,23.07
2019-02-19T03:28:27.889Z,21.23
2019-02-19T03:30:54.559Z,20.83
2019-02-19T03:33:21.286Z,22.70
2019-02-19T03:35:47.944Z,21.23
2019-02-19T03:38:14.608Z,21.90
2019-02-19T03:40:41.138Z,21.77
2019-02-19T03:43:07.723Z,26.13
2019-02-19T03:45:34.356Z,22.43
2019-02-19T03:48:00.960Z,22.63
2019-02-19T03:50:27.478Z,22.30
2019-02-19T03:52:54.011Z,21.93
2019-02-19T03:55:20.551Z,21.40
2019-02-19T03:57:46.976Z,21.43
2019-02-19T04:00:13.626Z,21.73
2019-02-19T04:02:40.165Z,22.93
2019-02-19T04:05:06.907Z,20.43
2019-02-19T04:07:33.449Z,21.83
2019-02-19T04:09:59.988Z,23.53
2019-02-19T04:12:26.520Z,22.23
2019-02-19T04:14:53.669Z,23.43
2019-02-19T04:17:20.297Z,21.63
2019-02-19T04:19:46.825Z,22.40
2019-02-19T04:22:13.681Z,22.97
2019-02-19T04:24:40.241Z,23.97
2019-02-19T04:27:06.865Z,23.87
2019-02-19T04:29:33.639Z,24.00
2019-02-19T04:32:00.376Z,22.57
2019-02-19T04:34:28.620Z,23.70
2019-02-19T04:36:55.350Z,23.27
2019-02-19T04:39:23.601Z,24.60
2019-02-19T04:41:50.224Z,24.37
2019-02-19T04:44:16.881Z,23.67
2019-02-19T04:46:44.346Z,23.70
2019-02-19T04:49:10.997Z,22.97
2019-02-19T04:51:37.625Z,26.70
2019-02-19T04:54:05.873Z,22.67
2019-02-19T04:56:32.610Z,23.30
2019-02-19T04:58:59.491Z,24.63
2019-02-19T05:01:26.108Z,23.20
2019-02-19T05:03:53.824Z,21.77
2019-02-19T05:06:20.498Z,22.03
2019-02-19T05:08:47.122Z,22.43
2019-02-19T05:11:14.081Z,25.47
2019-02-19T05:13:40.822Z,23.97
2019-02-19T05:16:07.471Z,22.90
2019-02-19T05:18:34.102Z,21.03
2019-02-19T05:21:00.747Z,23.07
2019-02-19T05:23:27.366Z,22.90
2019-02-19T05:25:54.023Z,23.53
2019-02-19T05:28:22.227Z,23.27
2019-02-19T05:30:48.792Z,22.37
2019-02-19T05:33:15.314Z,23.10
2019-02-19T05:35:41.851Z,23.90
2019-02-19T05:38:10.089Z,23.17
2019-02-19T05:40:36.592Z,23.17
2019-02-19T05:43:03.235Z,24.30
2019-02-19T05:45:29.890Z,22.63
2019-02-19T05:47:56.498Z,23.37
2019-02-19T05:50:23.052Z,23.60
2019-02-19T05:52:49.784Z,24.87
2019-02-19T05:55:16.437Z,25.83
2019-02-19T05:57:43.057Z,27.27
2019-02-19T06:00:10.914Z,32.23
2019-02-19T06:02:37.445Z,30.33
2019-02-19T06:05:06.188Z,30.53
2019-02-19T06:07:32.722Z,28.70
2019-02-19T06:09:59.273Z,29.53
2019-02-19T06:12:25.793Z,31.03
2019-02-19T06:14:52.377Z,31.60
2019-02-19T06:17:18.948Z,32.77
2019-02-19T06:19:46.254Z,33.47
2019-02-19T06:22:12.900Z,33.03
2019-02-19T06:24:39.532Z,34.60
2019-02-19T06:27:06.278Z,34.30
2019-02-19T06:29:32.966Z,35.73
2019-02-19T06:31:59.514Z,37.03
2019-02-19T06:34:27.042Z,39.10
2019-02-19T06:36:53.696Z,35.70
2019-02-19T06:39:20.315Z,40.83
2019-02-19T06:41:46.862Z,45.00
2019-02-19T06:44:13.477Z,41.40
2019-02-19T06:46:40.138Z,44.63
2019-02-19T06:49:06.559Z,43.10
2019-02-19T06:51:33.116Z,42.47
2019-02-19T06:53:59.745Z,40.23
2019-02-19T06:56:26.280Z,42.53
2019-02-19T06:58:52.906Z,40.50
2019-02-19T07:01:21.599Z,43.20
2019-02-19T07:03:59.647Z,42.97
2019-02-19T07:06:26.407Z,42.77
2019-02-19T07:08:53.234Z,45.30
2019-02-19T07:11:19.890Z,42.73
2019-02-19T07:13:46.421Z,41.20
2019-02-19T07:16:13.077Z,42.67
2019-02-19T07:18:39.698Z,43.77
2019-02-19T07:21:06.250Z,45.03
2019-02-19T07:23:32.870Z,46.13
2019-02-19T07:25:59.521Z,45.13
2019-02-19T07:28:26.255Z,47.27
2019-02-19T07:30:52.976Z,45.13
2019-02-19T07:33:19.586Z,47.30
2019-02-19T07:35:46.198Z,45.57
2019-02-19T07:38:12.834Z,48.77
2019-02-19T07:40:39.366Z,42.83
2019-02-19T07:43:06.005Z,42.93
2019-02-19T07:45:32.533Z,43.70
2019-02-19T07:47:59.200Z,42.50
2019-02-19T07:50:25.708Z,45.60
2019-02-19T07:52:52.313Z,43.50
2019-02-19T07:55:18.849Z,46.77
2019-02-19T07:57:45.492Z,44.13
2019-02-19T08:00:12.720Z,45.80
2019-02-19T08:02:39.305Z,46.07
2019-02-19T08:05:06.125Z,44.90
2019-02-19T08:07:32.789Z,46.60
2019-02-19T08:09:59.721Z,44.30
2019-02-19T08:12:26.392Z,43.73
2019-02-19T08:14:52.905Z,44.97
2019-02-19T08:17:19.565Z,40.40
2019-02-19T08:19:46.090Z,41.13
2019-02-19T08:22:12.646Z,42.07
2019-02-19T08:24:39.170Z,37.93
2019-02-19T08:27:05.718Z,42.03
2019-02-19T08:29:32.244Z,40.90
2019-02-19T08:31:58.882Z,40.40
2019-02-19T08:34:26.600Z,42.60
2019-02-19T08:36:53.266Z,37.43
2019-02-19T08:39:19.800Z,38.13
2019-02-19T08:41:48.065Z,37.57
2019-02-19T08:44:14.776Z,38.17
2019-02-19T08:46:41.402Z,36.03
2019-02-19T08:49:08.308Z,36.20
2019-02-19T08:51:34.824Z,36.93
2019-02-19T08:54:01.581Z,38.93
2019-02-19T08:56:28.404Z,38.30
2019-02-19T08:58:54.980Z,39.20
2019-02-19T09:01:21.725Z,38.03
2019-02-19T09:03:48.364Z,35.43
2019-02-19T09:06:14.985Z,34.07
2019-02-19T09:08:41.652Z,34.37
2019-02-19T09:11:08.281Z,36.50
2019-02-19T09:13:36.526Z,35.13
2019-02-19T09:16:03.068Z,38.10
2019-02-19T09:18:29.813Z,33.47
2019-02-19T09:20:56.432Z,34.20
2019-02-19T09:23:23.301Z,34.70
2019-02-19T09:25:50.411Z,31.27
2019-02-19T09:28:17.114Z,35.73
2019-02-19T09:30:43.737Z,34.87
2019-02-19T09:33:10.386Z,34.10
2019-02-19T09:35:37.009Z,35.00
2019-02-19T09:38:03.766Z,37.97
2019-02-19T09:40:30.501Z,36.50
2019-02-19T09:42:57.154Z,36.10
2019-02-19T09:45:24.279Z,36.90
2019-02-19T09:47:50.959Z,36.73
2019-02-19T09:50:17.587Z,34.67
2019-02-19T09:52:45.841Z,37.03
2019-02-19T09:55:12.469Z,33.90
2019-02-19T09:57:39.128Z,37.37
2019-02-19T10:00:09.401Z,35.47
2019-02-19T10:02:36.044Z,34.40
2019-02-19T10:05:04.370Z,36.63
2019-02-19T10:07:31.493Z,32.97
2019-02-19T10:09:58.048Z,31.67
2019-02-19T10:12:26.303Z,36.50
2019-02-19T10:14:52.860Z,28.67
2019-02-19T10:17:19.386Z,31.97
2019-02-19T10:19:45.930Z,28.63
2019-02-19T10:22:12.454Z,32.10
2019-02-19T10:24:39.132Z,27.03
2019-02-19T10:27:05.648Z,28.73
2019-02-19T10:29:32.296Z,29.83
2019-02-19T10:31:58.921Z,24.67
2019-02-19T10:34:25.477Z,27.00
2019-02-19T10:36:52.115Z,25.83
2019-02-19T10:39:18.774Z,27.40
2019-02-19T10:41:45.300Z,26.20
2019-02-19T10:44:11.957Z,30.37
2019-02-19T10:46:38.493Z,24.80
2019-02-19T10:49:05.051Z,26.20
2019-02-19T10:51:31.581Z,26.17
2019-02-19T10:53:58.138Z,27.60
2019-02-19T10:56:24.773Z,26.83
2019-02-19T10:58:51.359Z,29.10
2019-02-19T11:01:17.978Z,26.87
2019-02-19T11:03:44.621Z,28.90
2019-02-19T11:06:11.151Z,25.40
2019-02-19T11:08:37.704Z,26.27
2019-02-19T11:11:04.230Z,25.50
2019-02-19T11:13:30.784Z,26.63
2019-02-19T11:15:57.400Z,30.93
2019-02-19T11:18:28.387Z,22.43
2019-02-19T11:20:52.281Z,22.33
2019-02-19T11:23:18.791Z,21.53
2019-02-19T11:25:45.327Z,22.83
2019-02-19T11:28:11.845Z,22.70
2019-02-19T11:30:38.388Z,19.37
2019-02-19T11:33:04.924Z,18.90
2019-02-19T11:35:31.480Z,20.17
2019-02-19T11:37:57.990Z,20.80
2019-02-19T11:40:24.540Z,17.73
2019-02-19T11:42:51.069Z,21.37
2019-02-19T11:45:18.328Z,17.30
2019-02-19T11:47:44.852Z,19.90
2019-02-19T11:50:12.220Z,20.53
2019-02-19T11:52:38.734Z,16.80
2019-02-19T11:55:08.736Z,18.43
2019-02-19T11:57:36.077Z,23.23
2019-02-19T12:00:07.127Z,21.60
2019-02-19T12:02:33.756Z,17.60
2019-02-19T12:05:00.467Z,19.27
2019-02-19T12:07:28.002Z,18.60
2019-02-19T12:09:55.037Z,19.87
2019-02-19T12:12:21.668Z,18.00
2019-02-19T12:14:48.314Z,16.57
2019-02-19T12:17:15.533Z,17.83
2019-02-19T12:19:43.782Z,16.63
2019-02-19T12:22:10.409Z,15.97
2019-02-19T12:24:37.171Z,16.03
2019-02-19T12:27:03.902Z,16.53
2019-02-19T12:29:30.562Z,14.77
2019-02-19T12:31:57.184Z,14.77
2019-02-19T12:34:23.828Z,16.07
2019-02-19T12:36:50.467Z,14.80
2019-02-19T12:39:17.029Z,13.50
2019-02-19T12:41:43.462Z,16.60
2019-02-19T12:44:09.980Z,15.50
2019-02-19T12:46:36.444Z,13.60
2019-02-19T12:49:02.981Z,12.43
2019-02-19T12:51:29.531Z,15.77
2019-02-19T12:53:56.177Z,15.43
2019-02-19T12:56:22.748Z,15.37
2019-02-19T12:58:49.268Z,15.93
2019-02-19T13:01:16.158Z,12.40
2019-02-19T13:03:42.741Z,15.00
2019-02-19T13:06:09.302Z,13.03
2019-02-19T13:08:35.918Z,14.40
2019-02-19T13:11:02.501Z,13.33
2019-02-19T13:13:29.029Z,15.10
2019-02-19T13:15:55.590Z,13.07
2019-02-19T13:18:22.131Z,13.77
2019-02-19T13:20:48.776Z,15.53
2019-02-19T13:23:15.321Z,14.90
2019-02-19T13:25:41.981Z,14.90
2019-02-19T13:28:08.596Z,15.17
2019-02-19T13:30:35.247Z,15.40
2019-02-19T13:33:01.874Z,13.03
2019-02-19T13:35:28.520Z,15.17
2019-02-19T13:37:55.093Z,13.40
2019-02-19T13:40:21.745Z,13.43
2019-02-19T13:42:48.281Z,12.43
2019-02-19T13:45:14.943Z,16.70
2019-02-19T13:47:41.577Z,15.00
2019-02-19T13:50:14.728Z,16.70
2019-02-19T13:52:43.261Z,16.10
2019-02-19T13:55:11.745Z,13.07
2019-02-19T13:57:38.268Z,14.80
2019-02-19T14:00:09.074Z,12.80
2019-02-19T14:02:36.519Z,15.47
2019-02-19T14:05:04.589Z,15.10
2019-02-19T14:07:31.250Z,12.33
2019-02-19T14:09:57.776Z,15.70
2019-02-19T14:12:24.445Z,16.53
2019-02-19T14:14:52.869Z,17.00
2019-02-19T14:17:19.628Z,16.67
2019-02-19T14:19:48.156Z,16.70
2019-02-19T14:22:31.601Z,16.47
2019-02-19T14:25:18.645Z,16.30
2019-02-19T14:27:59.097Z,15.90
2019-02-19T14:30:42.942Z,16.30
2019-02-19T14:33:28.453Z,17.17
2019-02-19T14:36:02.806Z,18.80
2019-02-19T14:38:40.553Z,17.50
2019-02-19T14:41:15.029Z,19.77
2019-02-19T14:43:43.454Z,19.93
2019-02-19T14:46:12.008Z,19.80
2019-02-19T14:48:57.536Z,19.90
2019-02-19T14:51:38.053Z,21.20
2019-02-19T14:54:09.535Z,19.57
2019-02-19T14:56:38.140Z,21.27
2019-02-19T14:59:12.765Z,18.30
2019-02-19T15:01:57.841Z,21.13
2019-02-19T15:04:42.981Z,20.80
2019-02-19T15:07:17.464Z,23.43
2019-02-19T15:09:45.925Z,20.40
2019-02-19T15:12:29.802Z,24.17
2019-02-19T15:15:10.321Z,20.03
2019-02-19T15:17:47.992Z,22.50
2019-02-19T15:20:34.731Z,19.07
2019-02-19T15:23:09.390Z,15.33
2019-02-19T15:25:49.863Z,13.30
2019-02-19T15:28:18.532Z,15.07
2019-02-19T15:30:59.482Z,17.17
2019-02-19T15:33:29.020Z,14.63
2019-02-19T15:36:00.009Z,17.87
2019-02-19T15:38:45.016Z,19.00
2019-02-19T15:41:28.661Z,16.20
2019-02-19T15:43:57.239Z,15.93
2019-02-19T15:46:28.779Z,19.07
2019-02-19T15:49:14.113Z,14.17
2019-02-19T15:51:42.530Z,11.40
2019-02-19T15:54:13.766Z,12.40
2019-02-19T15:56:54.080Z,12.03
2019-02-19T15:59:28.516Z,11.67
2019-02-19T16:02:08.699Z,12.57
2019-02-19T16:04:43.282Z,12.10
2019-02-19T16:07:14.747Z,12.20
2019-02-19T16:09:43.481Z,12.37
2019-02-19T16:12:12.540Z,12.57
2019-02-19T16:14:47.888Z,13.40
2019-02-19T16:17:25.424Z,14.80
2019-02-19T16:19:56.994Z,13.30
2019-02-19T16:22:30.066Z,14.40
2019-02-19T16:25:16.719Z,14.20
2019-02-19T16:28:12.359Z,13.50
2019-02-19T16:30:41.491Z,14.43
2019-02-19T16:33:25.854Z,13.00
2019-02-19T16:36:00.484Z,13.23
2019-02-19T16:38:29.456Z,12.90
2019-02-19T16:41:00.812Z,13.13
2019-02-19T16:43:47.852Z,10.43
2019-02-19T16:46:22.355Z,10.13
2019-02-19T16:48:56.813Z,11.50
2019-02-19T16:51:25.386Z,9.53
2019-02-19T16:53:54.118Z,11.23
2019-02-19T16:56:25.385Z,9.13
2019-02-19T16:59:11.799Z,8.53
2019-02-19T17:01:57.206Z,7.20
2019-02-19T17:04:34.836Z,12.20
2019-02-19T17:07:21.621Z,9.00
2019-02-19T17:09:50.180Z,9.23
2019-02-19T17:12:34.288Z,10.37
2019-02-19T17:15:19.460Z,9.23
2019-02-19T17:18:06.482Z,8.00
2019-02-19T17:20:35.659Z,10.30
2019-02-19T17:23:04.174Z,7.50
2019-02-19T17:25:45.849Z,8.33
2019-02-19T17:28:14.930Z,11.80
2019-02-19T17:30:46.526Z,10.60
2019-02-19T17:33:15.165Z,12.37
2019-02-19T17:35:52.797Z,10.53
2019-02-19T17:38:27.219Z,11.13
2019-02-19T17:41:01.986Z,9.93
2019-02-19T17:43:30.516Z,9.20
2019-02-19T17:46:01.913Z,13.87
2019-02-19T17:48:32.896Z,14.10
2019-02-19T17:51:06.871Z,13.40
2019-02-19T17:53:44.318Z,11.30
2019-02-19T17:56:29.953Z,10.90
2019-02-19T17:59:07.123Z,11.77
2019-02-19T18:01:38.402Z,13.67
2019-02-19T18:04:26.755Z,10.87
2019-02-19T18:07:01.754Z,10.90
2019-02-19T18:09:36.189Z,11.80
2019-02-19T18:12:04.697Z,13.57
2019-02-19T18:14:43.713Z,13.50
2019-02-19T18:17:12.519Z,14.67
2019-02-19T18:19:40.069Z,14.37
2019-02-19T18:22:07.378Z,15.37
2019-02-19T18:24:33.952Z,14.33
2019-02-19T18:27:02.212Z,14.43
2019-02-19T18:29:28.782Z,19.13
2019-02-19T18:31:55.403Z,15.80
2019-02-19T18:34:22.073Z,15.67
2019-02-19T18:36:48.699Z,18.20
2019-02-19T18:39:15.468Z,15.60
2019-02-19T18:41:41.989Z,19.83
2019-02-19T18:44:08.659Z,14.80
2019-02-19T18:46:35.179Z,17.43
2019-02-19T18:49:01.749Z,17.00
2019-02-19T18:51:28.421Z,17.23
2019-02-19T18:53:55.103Z,21.30
2019-02-19T18:56:23.323Z,17.62
2019-02-19T18:58:49.865Z,17.50
2019-02-19T19:01:16.590Z,18.23
2019-02-19T19:03:43.173Z,17.50
2019-02-19T19:06:10.460Z,16.30
2019-02-19T19:08:37.029Z,20.90
2019-02-19T19:11:03.710Z,18.07
2019-02-19T19:13:30.313Z,18.03
2019-02-19T19:15:57.054Z,18.00
2019-02-19T19:18:24.074Z,20.30
2019-02-19T19:20:50.660Z,19.32
2019-02-19T19:23:17.247Z,22.32
2019-02-19T19:25:43.970Z,19.77
2019-02-19T19:28:10.573Z,22.42
2019-02-19T19:30:37.273Z,16.90
2019-02-19T19:33:03.897Z,14.90
2019-02-19T19:35:30.673Z,16.10
2019-02-19T19:37:57.265Z,18.77
2019-02-19T19:40:23.899Z,18.82
2019-02-19T19:42:50.457Z,19.93
2019-02-19T19:45:17.224Z,17.77
2019-02-19T19:47:44.009Z,19.37
2019-02-19T19:50:10.546Z,21.07
2019-02-19T19:52:37.762Z,18.60
2019-02-19T19:55:07.644Z,23.00
2019-02-19T19:57:34.222Z,21.63
2019-02-19T20:00:01.099Z,18.07
2019-02-19T20:02:27.948Z,18.93
2019-02-19T20:04:54.574Z,20.63
2019-02-19T20:07:21.150Z,18.47
2019-02-19T20:09:47.787Z,17.60
2019-02-19T20:12:16.006Z,17.93
2019-02-19T20:14:42.631Z,18.20
2019-02-19T20:17:09.159Z,15.90
2019-02-19T20:19:35.739Z,15.30
2019-02-19T20:22:02.412Z,13.43
2019-02-19T20:24:29.087Z,13.07
2019-02-19T20:26:55.609Z,14.10
2019-02-19T20:29:22.319Z,13.00
2019-02-19T20:31:48.896Z,16.93
2019-02-19T20:34:15.553Z,16.77
2019-02-19T20:36:42.469Z,18.63
2019-02-19T20:39:09.146Z,19.00
2019-02-19T20:41:35.670Z,16.57
2019-02-19T20:44:02.256Z,19.10
2019-02-19T20:46:30.508Z,17.73
2019-02-19T20:48:57.190Z,19.13
2019-02-19T20:51:23.860Z,23.73
2019-02-19T20:53:50.374Z,19.80
2019-02-19T20:56:16.966Z,13.30
2019-02-19T20:58:43.623Z,20.80
2019-02-19T21:01:10.300Z,16.30
2019-02-19T21:03:36.963Z,13.00
2019-02-19T21:06:03.705Z,19.87
2019-02-19T21:08:31.254Z,21.97
2019-02-19T21:10:57.935Z,15.77
2019-02-19T21:13:24.662Z,16.97
2019-02-19T21:15:52.078Z,20.73
2019-02-19T21:18:19.528Z,22.63
2019-02-19T21:20:46.743Z,17.00
2019-02-19T21:23:13.361Z,16.30
2019-02-19T21:25:39.986Z,14.90
2019-02-19T21:28:07.314Z,13.00
2019-02-19T21:30:35.547Z,19.83
2019-02-19T21:33:02.212Z,16.30
2019-02-19T21:35:29.181Z,13.90
2019-02-19T21:37:55.806Z,23.13
2019-02-19T21:40:22.516Z,15.43
2019-02-19T21:42:49.143Z,14.73
2019-02-19T21:45:15.877Z,18.00
2019-02-19T21:47:43.600Z,18.67
2019-02-19T21:50:11.708Z,19.23
2019-02-19T21:52:38.616Z,20.40
2019-02-19T21:55:07.058Z,19.77
2019-02-19T21:57:33.837Z,18.00
2019-02-19T22:00:00.468Z,19.23
2019-02-19T22:02:27.380Z,18.47
2019-02-19T22:04:54.138Z,19.60
2019-02-19T22:07:20.778Z,22.10
2019-02-19T22:09:47.455Z,21.80
2019-02-19T22:12:14.082Z,18.93
2019-02-19T22:14:40.677Z,21.90
2019-02-19T22:17:07.326Z,20.87
2019-02-19T22:19:33.915Z,24.00
2019-02-19T22:22:03.666Z,24.90
2019-02-19T22:24:34.019Z,22.50
2019-02-19T22:27:01.248Z,24.00
2019-02-19T22:29:27.777Z,27.63
2019-02-19T22:31:54.367Z,25.83
2019-02-19T22:34:20.944Z,25.90
2019-02-19T22:36:47.719Z,24.87
2019-02-19T22:39:14.235Z,19.03
2019-02-19T22:41:40.816Z,21.20
2019-02-19T22:44:07.329Z,21.20
2019-02-19T22:46:33.879Z,29.27
2019-02-19T22:49:00.807Z,26.53
2019-02-19T22:51:27.372Z,22.50
2019-02-19T22:53:55.951Z,25.07
2019-02-19T22:56:27.228Z,27.00
2019-02-19T22:58:53.890Z,21.80
2019-02-19T23:01:22.904Z,17.67
2019-02-19T23:03:51.108Z,22.10
2019-02-19T23:06:18.538Z,25.70
2019-02-19T23:08:45.078Z,16.27
2019-02-19T23:11:13.310Z,22.93
2019-02-19T23:13:40.769Z,20.10
2019-02-19T23:16:07.450Z,19.90
2019-02-19T23:18:34.789Z,19.80
2019-02-19T23:21:01.416Z,25.40
2019-02-19T23:23:29.677Z,19.47
2019-02-19T23:25:56.999Z,22.03
2019-02-19T23:28:23.640Z,18.20
2019-02-19T23:30:50.256Z,21.23
2019-02-19T23:33:16.907Z,21.40
2019-02-19T23:35:45.530Z,20.93
2019-02-19T23:38:12.284Z,21.10
2019-02-19T23:40:38.910Z,22.63
2019-02-19T23:43:07.128Z,27.50
2019-02-19T23:45:33.777Z,18.70
2019-02-19T23:48:00.748Z,22.10
2019-02-19T23:50:27.665Z,21.27
2019-02-19T23:52:54.302Z,23.90
2019-02-19T23:55:20.850Z,23.87
2019-02-19T23:57:47.493Z,21.10
